Caroline, Canada
Current Conditions -  °F | °C
As of 10:00 PM on Wednesday 22 Oct 2014 (Local Time) from CYQF Reporting Station
Broken Clouds Broken Clouds  
Wind Chill: 41°   Ceiling: 23000
Heat Index: 45°   Visibility: 15mi
Dew Point: 32°   Wind: 7mph
Humidity: 61%   Direction: 150°SSE
Pressure: 29.58"   Gusts: NA
Location:  52.08°N, 114.75°W
Report Text: CYQF 230400Z 15006KT 15SM BKN230 07/M00 A2958 RMK CI6 SLP040 DENSITY ALT 3100FT
Loading
Personal Weather Stations






























Interactive Weather Map
Tropical Storm Tracking
New forecast layout! Learn more

10-Day Weather Forecast

Advertisements
Track Severe Weather on mobile